Torrington, CT (06790)

10:11 AM EDT on July 26, 2016 (GMT -0400)
DeRuyter | | Change Station
Active Advisory: Special Statement

Elev 850 ft 41.81 °N, 73.10 °W | Updated 9 minutes ago

Scattered Clouds
Scattered Clouds
79.5 °F
Feels Like 82 °F
N
0.0
Wind Variable Wind from SSE

Today
High -- | Low -- °F
--% Chance of Precip.
Yesterday
High -- | Low -- °F
Precip. -- in
Pressure 29.94 in
Visibility 10.0 miles
Clouds Scattered Clouds 800 ft
Heat Index 82 °F
Dew Point 68 °F
Humidity 68%
Rainfall 0.00 in
Snow Depth Not available.
5:41 AM 8:16 PM
Waning Gibbous, 54% visible
METAR KOXC 261350Z 32004KT 10SM SCT008 24/19 A2994
Pressure 29.94 in
Visibility 10.0 miles
Clouds Scattered Clouds 800 ft
Heat Index 82 °F
Dew Point 68 °F
Humidity 68%
Rainfall 0.00 in
Snow Depth Not available.
5:41 AM 8:16 PM
Waning Gibbous, 54% visible
METAR KOXC 261350Z 32004KT 10SM SCT008 24/19 A2994

10-Day Weather Forecast

Almanac

Astronomy

Jul. 26, 2016 Rise Set
Actual Time
Civil Twilight
Nautical Twilight
Astronomical Twilight
Moon
Length of Visible Light
Length of Day
Tomorrow will be .
, % of the Moon is Illuminated

Today's Extremes

State Highs State Lows

Community

WunderPhotos

Upload Photos

1,927,590 photos uploaded!

WunderBlog® & News

Nearby

Air Quality

  Air Quality AQ Index Pollutant
Not available.

Snow Depth

Station Depth Elevation

Earthquake Activity

City Distance Mag. Time & Date
Minimum magnitude displayed is 2.5.

Coastal Water Temperatures

Place Temperature

Stations

Nearby Weather Stations

Station Location Temp. Windchill Dew Point Humidity Wind Precip. Elev Updated Type
                   

Watches & Warnings

Special Statement
Issued: 7:32 AM EDT Jul. 26, 2016 – National Weather Service

... Elevated fire weather potential today and Wednesday...

Dry weather is expected today and Wednesday with minimum relative
humidity values around 35 to 40 percent. In addition... west winds
will gust around 20 mph around midday and through the afternoon.
These factors combined with a lack of recent widespread rainfall
will create an elevated fire weather potential in western
Massachusetts and northwest Connecticut.